sensor_id;sensor_type;location;lat;lon;timestamp;pressure;altitude;pressure_sealevel;temperature;humidity
12349;BME280;5974;42.710;27.258;2023-06-19T00:00:44;99777.28;;;21.63;100.00
12349;BME280;5974;42.710;27.258;2023-06-19T00:03:11;99779.09;;;21.72;100.00
12349;BME280;5974;42.710;27.258;2023-06-19T00:05:38;99768.44;;;21.72;100.00
12349;BME280;5974;42.710;27.258;2023-06-19T00:08:05;99778.53;;;21.88;100.00
12349;BME280;5974;42.710;27.258;2023-06-19T00:10:33;99783.28;;;21.84;100.00
12349;BME280;5974;42.710;27.258;2023-06-19T00:13:00;99780.94;;;21.91;100.00
12349;BME280;5974;42.710;27.258;2023-06-19T00:15:28;99776.44;;;21.72;100.00
12349;BME280;5974;42.710;27.258;2023-06-19T00:17:55;99778.97;;;21.74;100.00
12349;BME280;5974;42.710;27.258;2023-06-19T00:20:24;99775.19;;;21.76;100.00
12349;BME280;5974;42.710;27.258;2023-06-19T00:22:50;99784.56;;;21.61;100.00
12349;BME280;5974;42.710;27.258;2023-06-19T00:25:18;99788.09;;;21.61;100.00
12349;BME280;5974;42.710;27.258;2023-06-19T00:27:47;99750.13;;;21.31;100.00
12349;BME280;5974;42.710;27.258;2023-06-19T00:30:14;99785.97;;;21.46;100.00
12349;BME280;5974;42.710;27.258;2023-06-19T00:32:41;99786.25;;;21.43;100.00
12349;BME280;5974;42.710;27.258;2023-06-19T00:35:13;99794.06;;;21.44;100.00
12349;BME280;5974;42.710;27.258;2023-06-19T00:37:40;99793.13;;;21.55;100.00
12349;BME280;5974;42.710;27.258;2023-06-19T00:40:14;99789.03;;;21.51;100.00
12349;BME280;5974;42.710;27.258;2023-06-19T00:42:43;99788.22;;;21.31;100.00
12349;BME280;5974;42.710;27.258;2023-06-19T00:45:11;99787.94;;;21.34;100.00
12349;BME280;5974;42.710;27.258;2023-06-19T00:47:38;99794.06;;;21.25;100.00
12349;BME280;5974;42.710;27.258;2023-06-19T00:50:06;99797.44;;;21.37;100.00
12349;BME280;5974;42.710;27.258;2023-06-19T00:52:33;99806.53;;;21.53;100.00
12349;BME280;5974;42.710;27.258;2023-06-19T00:55:01;99802.88;;;21.35;100.00
12349;BME280;5974;42.710;27.258;2023-06-19T00:57:29;99798.84;;;21.41;100.00
12349;BME280;5974;42.710;27.258;2023-06-19T00:59:57;99797.72;;;21.24;100.00
12349;BME280;5974;42.710;27.258;2023-06-19T01:02:26;99758.88;;;21.02;100.00
12349;BME280;5974;42.710;27.258;2023-06-19T01:04:53;99805.00;;;21.32;100.00
12349;BME280;5974;42.710;27.258;2023-06-19T01:07:24;99799.41;;;21.25;100.00
12349;BME280;5974;42.710;27.258;2023-06-19T01:09:58;99795.91;;;21.25;100.00
12349;BME280;5974;42.710;27.258;2023-06-19T01:12:30;99797.28;;;21.19;100.00
12349;BME280;5974;42.710;27.258;2023-06-19T01:14:58;99795.44;;;21.20;100.00
12349;BME280;5974;42.710;27.258;2023-06-19T01:17:28;99804.56;;;21.27;100.00
12349;BME280;5974;42.710;27.258;2023-06-19T01:19:55;99810.00;;;21.16;100.00
12349;BME280;5974;42.710;27.258;2023-06-19T01:22:26;99803.31;;;21.21;100.00
12349;BME280;5974;42.710;27.258;2023-06-19T01:24:53;99801.34;;;21.33;100.00
12349;BME280;5974;42.710;27.258;2023-06-19T01:27:20;99809.78;;;21.38;100.00
12349;BME280;5974;42.710;27.258;2023-06-19T01:29:47;99810.59;;;21.38;100.00
12349;BME280;5974;42.710;27.258;2023-06-19T01:32:18;99810.75;;;21.37;100.00
12349;BME280;5974;42.710;27.258;2023-06-19T01:34:47;99802.75;;;21.37;100.00
12349;BME280;5974;42.710;27.258;2023-06-19T01:37:16;99801.50;;;21.31;100.00
12349;BME280;5974;42.710;27.258;2023-06-19T01:39:45;99802.63;;;21.38;100.00
12349;BME280;5974;42.710;27.258;2023-06-19T01:42:13;99799.56;;;21.43;100.00
12349;BME280;5974;42.710;27.258;2023-06-19T01:44:41;99796.91;;;21.43;100.00
12349;BME280;5974;42.710;27.258;2023-06-19T01:47:10;99799.97;;;21.48;100.00
12349;BME280;5974;42.710;27.258;2023-06-19T01:49:38;99759.63;;;21.24;100.00
12349;BME280;5974;42.710;27.258;2023-06-19T01:52:05;99807.53;;;21.52;100.00
12349;BME280;5974;42.710;27.258;2023-06-19T01:54:32;99809.78;;;21.67;100.00
12349;BME280;5974;42.710;27.258;2023-06-19T01:57:00;99807.56;;;21.62;100.00
12349;BME280;5974;42.710;27.258;2023-06-19T01:59:27;99815.94;;;21.67;100.00
12349;BME280;5974;42.710;27.258;2023-06-19T02:01:54;99811.88;;;21.63;100.00
12349;BME280;5974;42.710;27.258;2023-06-19T02:04:21;99809.78;;;21.67;100.00
12349;BME280;5974;42.710;27.258;2023-06-19T02:06:48;99819.84;;;21.63;100.00
12349;BME280;5974;42.710;27.258;2023-06-19T02:09:15;99816.34;;;21.72;100.00
12349;BME280;5974;42.710;27.258;2023-06-19T02:11:42;99809.09;;;21.74;100.00
12349;BME280;5974;42.710;27.258;2023-06-19T02:14:10;99776.88;;;21.48;100.00
12349;BME280;5974;42.710;27.258;2023-06-19T02:16:37;99815.66;;;21.70;100.00
12349;BME280;5974;42.710;27.258;2023-06-19T02:19:05;99820.00;;;21.71;100.00
12349;BME280;5974;42.710;27.258;2023-06-19T02:21:32;99818.47;;;21.69;100.00
12349;BME280;5974;42.710;27.258;2023-06-19T02:23:59;99824.91;;;21.76;100.00
12349;BME280;5974;42.710;27.258;2023-06-19T02:26:26;99816.63;;;21.69;100.00
12349;BME280;5974;42.710;27.258;2023-06-19T02:28:54;99824.34;;;21.72;100.00
12349;BME280;5974;42.710;27.258;2023-06-19T02:31:23;99823.53;;;21.72;100.00
12349;BME280;5974;42.710;27.258;2023-06-19T02:33:50;99830.38;;;21.74;100.00
12349;BME280;5974;42.710;27.258;2023-06-19T02:36:17;99831.06;;;21.67;100.00
12349;BME280;5974;42.710;27.258;2023-06-19T02:38:45;99827.28;;;21.69;100.00
12349;BME280;5974;42.710;27.258;2023-06-19T02:41:13;99820.31;;;21.68;100.00
12349;BME280;5974;42.710;27.258;2023-06-19T02:43:40;99827.00;;;21.72;100.00
12349;BME280;5974;42.710;27.258;2023-06-19T02:46:07;99841.16;;;21.63;100.00
12349;BME280;5974;42.710;27.258;2023-06-19T02:48:35;99809.94;;;21.55;100.00
12349;BME280;5974;42.710;27.258;2023-06-19T02:51:02;99837.91;;;21.59;100.00
12349;BME280;5974;42.710;27.258;2023-06-19T02:53:29;99826.88;;;21.64;100.00
12349;BME280;5974;42.710;27.258;2023-06-19T02:55:56;99834.16;;;21.62;100.00
12349;BME280;5974;42.710;27.258;2023-06-19T02:58:23;99816.09;;;21.46;100.00
12349;BME280;5974;42.710;27.258;2023-06-19T03:00:52;99834.84;;;21.64;100.00
12349;BME280;5974;42.710;27.258;2023-06-19T03:03:19;99841.72;;;21.67;100.00
12349;BME280;5974;42.710;27.258;2023-06-19T03:05:49;99834.84;;;21.64;100.00
12349;BME280;5974;42.710;27.258;2023-06-19T03:08:17;99836.25;;;21.58;100.00
12349;BME280;5974;42.710;27.258;2023-06-19T03:10:45;99828.84;;;21.62;100.00
12349;BME280;5974;42.710;27.258;2023-06-19T03:13:12;99830.94;;;21.58;100.00
12349;BME280;5974;42.710;27.258;2023-06-19T03:15:39;99836.09;;;21.50;100.00
12349;BME280;5974;42.710;27.258;2023-06-19T03:18:06;99831.50;;;21.62;100.00
12349;BME280;5974;42.710;27.258;2023-06-19T03:20:35;99834.69;;;21.75;100.00
12349;BME280;5974;42.710;27.258;2023-06-19T03:23:03;99819.28;;;21.69;100.00
12349;BME280;5974;42.710;27.258;2023-06-19T03:25:30;99840.75;;;21.77;100.00
12349;BME280;5974;42.710;27.258;2023-06-19T03:28:00;99844.25;;;21.78;100.00
12349;BME280;5974;42.710;27.258;2023-06-19T03:30:28;99841.84;;;21.84;100.00
12349;BME280;5974;42.710;27.258;2023-06-19T03:32:55;99800.53;;;21.61;100.00
12349;BME280;5974;42.710;27.258;2023-06-19T03:35:21;99841.75;;;22.05;100.00
12349;BME280;5974;42.710;27.258;2023-06-19T03:37:48;99837.22;;;22.15;100.00
12349;BME280;5974;42.710;27.258;2023-06-19T03:40:17;99847.31;;;22.21;100.00
12349;BME280;5974;42.710;27.258;2023-06-19T03:42:43;99831.63;;;22.18;100.00
12349;BME280;5974;42.710;27.258;2023-06-19T03:45:10;99849.84;;;22.32;100.00
12349;BME280;5974;42.710;27.258;2023-06-19T03:47:37;99831.75;;;22.26;100.00
12349;BME280;5974;42.710;27.258;2023-06-19T03:50:05;99849.56;;;22.35;100.00
12349;BME280;5974;42.710;27.258;2023-06-19T03:52:35;99847.84;;;22.44;100.00
12349;BME280;5974;42.710;27.258;2023-06-19T03:55:02;99850.03;;;22.58;100.00
12349;BME280;5974;42.710;27.258;2023-06-19T03:57:30;99841.16;;;22.77;100.00
12349;BME280;5974;42.710;27.258;2023-06-19T03:59:57;99840.41;;;23.21;100.00
12349;BME280;5974;42.710;27.258;2023-06-19T04:02:24;99829.34;;;23.96;100.00
12349;BME280;5974;42.710;27.258;2023-06-19T04:04:52;99833.13;;;24.29;100.00
12349;BME280;5974;42.710;27.258;2023-06-19T04:07:19;99822.72;;;24.52;100.00
12349;BME280;5974;42.710;27.258;2023-06-19T04:09:46;99828.81;;;24.88;100.00
12349;BME280;5974;42.710;27.258;2023-06-19T04:12:12;99820.88;;;24.78;100.00
12349;BME280;5974;42.710;27.258;2023-06-19T04:14:41;99819.31;;;25.01;100.00
12349;BME280;5974;42.710;27.258;2023-06-19T04:17:08;99817.13;;;25.47;100.00
12349;BME280;5974;42.710;27.258;2023-06-19T04:19:34;99825.19;;;24.97;100.00
12349;BME280;5974;42.710;27.258;2023-06-19T04:22:01;99814.44;;;25.39;100.00
12349;BME280;5974;42.710;27.258;2023-06-19T04:24:28;99826.09;;;25.96;100.00
12349;BME280;5974;42.710;27.258;2023-06-19T04:26:55;99809.13;;;26.44;100.00
12349;BME280;5974;42.710;27.258;2023-06-19T04:29:22;99812.19;;;26.08;100.00
12349;BME280;5974;42.710;27.258;2023-06-19T04:31:50;99815.06;;;25.24;100.00
12349;BME280;5974;42.710;27.258;2023-06-19T04:34:18;99828.53;;;24.39;100.00
12349;BME280;5974;42.710;27.258;2023-06-19T04:36:46;99826.38;;;23.64;100.00
12349;BME280;5974;42.710;27.258;2023-06-19T04:39:14;99838.56;;;23.49;100.00
12349;BME280;5974;42.710;27.258;2023-06-19T04:41:43;99827.66;;;23.95;100.00
12349;BME280;5974;42.710;27.258;2023-06-19T04:44:10;99823.94;;;23.53;100.00
12349;BME280;5974;42.710;27.258;2023-06-19T04:46:38;99846.50;;;23.41;100.00
12349;BME280;5974;42.710;27.258;2023-06-19T04:49:06;99841.19;;;23.31;100.00
12349;BME280;5974;42.710;27.258;2023-06-19T04:51:34;99832.81;;;23.16;100.00
12349;BME280;5974;42.710;27.258;2023-06-19T04:54:01;99834.72;;;23.06;100.00
12349;BME280;5974;42.710;27.258;2023-06-19T04:56:28;99826.22;;;23.20;100.00
12349;BME280;5974;42.710;27.258;2023-06-19T04:58:55;99830.66;;;23.30;100.00
12349;BME280;5974;42.710;27.258;2023-06-19T05:01:26;99819.31;;;23.28;100.00
12349;BME280;5974;42.710;27.258;2023-06-19T05:03:54;99820.78;;;23.75;100.00
12349;BME280;5974;42.710;27.258;2023-06-19T05:06:23;99828.66;;;24.63;100.00
12349;BME280;5974;42.710;27.258;2023-06-19T05:08:50;99825.34;;;24.00;100.00
12349;BME280;5974;42.710;27.258;2023-06-19T05:11:17;99827.59;;;24.31;100.00
12349;BME280;5974;42.710;27.258;2023-06-19T05:13:44;99836.56;;;24.21;100.00
12349;BME280;5974;42.710;27.258;2023-06-19T05:16:11;99836.78;;;24.10;100.00
12349;BME280;5974;42.710;27.258;2023-06-19T05:18:42;99775.72;;;24.75;100.00
12349;BME280;5974;42.710;27.258;2023-06-19T05:21:09;99841.09;;;25.06;100.00
12349;BME280;5974;42.710;27.258;2023-06-19T05:23:38;99847.56;;;24.36;100.00
12349;BME280;5974;42.710;27.258;2023-06-19T05:26:05;99850.41;;;23.99;100.00
12349;BME280;5974;42.710;27.258;2023-06-19T05:28:32;99833.06;;;24.47;100.00
12349;BME280;5974;42.710;27.258;2023-06-19T05:30:59;99829.22;;;25.51;100.00
12349;BME280;5974;42.710;27.258;2023-06-19T05:33:26;99836.09;;;26.50;100.00
12349;BME280;5974;42.710;27.258;2023-06-19T05:35:53;99832.09;;;27.71;100.00
12349;BME280;5974;42.710;27.258;2023-06-19T05:38:20;99836.81;;;28.14;98.26
12349;BME280;5974;42.710;27.258;2023-06-19T05:40:50;99840.94;;;27.79;95.04
12349;BME280;5974;42.710;27.258;2023-06-19T05:43:17;99837.34;;;28.62;91.81
12349;BME280;5974;42.710;27.258;2023-06-19T05:45:45;99823.63;;;27.59;91.84
12349;BME280;5974;42.710;27.258;2023-06-19T05:48:12;99833.28;;;27.45;92.20
12349;BME280;5974;42.710;27.258;2023-06-19T05:50:39;99810.59;;;27.71;91.50
12349;BME280;5974;42.710;27.258;2023-06-19T05:53:06;99843.72;;;28.31;89.48
12349;BME280;5974;42.710;27.258;2023-06-19T05:55:32;99836.66;;;28.97;86.31
12349;BME280;5974;42.710;27.258;2023-06-19T05:58:01;99835.69;;;29.04;83.60
12349;BME280;5974;42.710;27.258;2023-06-19T06:00:29;99847.69;;;30.09;78.32
12349;BME280;5974;42.710;27.258;2023-06-19T06:02:57;99838.00;;;29.08;79.16
12349;BME280;5974;42.710;27.258;2023-06-19T06:05:26;99827.31;;;28.41;81.06
12349;BME280;5974;42.710;27.258;2023-06-19T06:07:54;99805.94;;;26.40;86.73
12349;BME280;5974;42.710;27.258;2023-06-19T06:10:21;99827.66;;;25.40;95.22
12349;BME280;5974;42.710;27.258;2023-06-19T06:12:48;99835.94;;;25.13;100.00
12349;BME280;5974;42.710;27.258;2023-06-19T06:15:17;99828.00;;;24.95;100.00
12349;BME280;5974;42.710;27.258;2023-06-19T06:17:44;99834.72;;;25.07;100.00
12349;BME280;5974;42.710;27.258;2023-06-19T06:20:12;99821.94;;;24.59;100.00
12349;BME280;5974;42.710;27.258;2023-06-19T06:22:38;99829.56;;;25.06;100.00
12349;BME280;5974;42.710;27.258;2023-06-19T06:25:06;99826.59;;;25.83;99.39
12349;BME280;5974;42.710;27.258;2023-06-19T06:27:33;99842.09;;;24.79;100.00
12349;BME280;5974;42.710;27.258;2023-06-19T06:30:01;99864.88;;;24.32;100.00
12349;BME280;5974;42.710;27.258;2023-06-19T06:32:30;99835.28;;;24.08;100.00
12349;BME280;5974;42.710;27.258;2023-06-19T06:34:57;99849.69;;;24.15;100.00
12349;BME280;5974;42.710;27.258;2023-06-19T06:37:24;99840.34;;;24.11;100.00
12349;BME280;5974;42.710;27.258;2023-06-19T06:39:51;99854.91;;;24.16;100.00
12349;BME280;5974;42.710;27.258;2023-06-19T06:42:18;99870.94;;;24.16;100.00
12349;BME280;5974;42.710;27.258;2023-06-19T06:44:45;99872.00;;;24.23;100.00
12349;BME280;5974;42.710;27.258;2023-06-19T06:47:12;99878.03;;;24.25;100.00
12349;BME280;5974;42.710;27.258;2023-06-19T06:49:40;99892.31;;;24.16;100.00
12349;BME280;5974;42.710;27.258;2023-06-19T06:52:07;99900.31;;;24.34;100.00
12349;BME280;5974;42.710;27.258;2023-06-19T06:54:35;99881.13;;;24.39;100.00
12349;BME280;5974;42.710;27.258;2023-06-19T06:57:02;99880.94;;;24.58;100.00
12349;BME280;5974;42.710;27.258;2023-06-19T06:59:30;99883.19;;;24.45;100.00
12349;BME280;5974;42.710;27.258;2023-06-19T07:01:57;99889.69;;;24.42;100.00
12349;BME280;5974;42.710;27.258;2023-06-19T07:04:24;99884.50;;;24.41;100.00
12349;BME280;5974;42.710;27.258;2023-06-19T07:06:53;99889.53;;;24.44;100.00
12349;BME280;5974;42.710;27.258;2023-06-19T07:09:20;99875.72;;;24.31;100.00
12349;BME280;5974;42.710;27.258;2023-06-19T07:11:47;99887.97;;;24.33;100.00
12349;BME280;5974;42.710;27.258;2023-06-19T07:14:14;99886.63;;;24.37;100.00
12349;BME280;5974;42.710;27.258;2023-06-19T07:16:43;99896.59;;;24.27;100.00
12349;BME280;5974;42.710;27.258;2023-06-19T07:19:10;99898.78;;;24.32;100.00
12349;BME280;5974;42.710;27.258;2023-06-19T07:21:37;99896.69;;;24.61;100.00
12349;BME280;5974;42.710;27.258;2023-06-19T07:24:06;99894.56;;;24.47;100.00
12349;BME280;5974;42.710;27.258;2023-06-19T07:26:33;99887.16;;;24.41;100.00
12349;BME280;5974;42.710;27.258;2023-06-19T07:29:00;99892.38;;;24.42;100.00
12349;BME280;5974;42.710;27.258;2023-06-19T07:31:28;99892.88;;;24.71;100.00
12349;BME280;5974;42.710;27.258;2023-06-19T07:33:54;99902.34;;;24.58;100.00
12349;BME280;5974;42.710;27.258;2023-06-19T07:36:21;99899.53;;;24.85;100.00
12349;BME280;5974;42.710;27.258;2023-06-19T07:38:48;99908.31;;;24.77;98.46
12349;BME280;5974;42.710;27.258;2023-06-19T07:41:17;99893.38;;;25.26;98.07
12349;BME280;5974;42.710;27.258;2023-06-19T07:43:43;99885.78;;;27.01;90.01
12349;BME280;5974;42.710;27.258;2023-06-19T07:46:10;99874.00;;;28.02;82.91
12349;BME280;5974;42.710;27.258;2023-06-19T07:48:37;99888.47;;;29.28;78.11
12349;BME280;5974;42.710;27.258;2023-06-19T07:51:04;99898.56;;;29.55;75.90
12349;BME280;5974;42.710;27.258;2023-06-19T07:53:31;99894.56;;;29.87;74.83
12349;BME280;5974;42.710;27.258;2023-06-19T07:55:58;99899.47;;;29.04;75.44
12349;BME280;5974;42.710;27.258;2023-06-19T07:58:26;99889.88;;;28.20;78.54
12349;BME280;5974;42.710;27.258;2023-06-19T08:00:53;99903.34;;;27.28;79.20
12349;BME280;5974;42.710;27.258;2023-06-19T08:03:20;99895.91;;;26.75;83.54
12349;BME280;5974;42.710;27.258;2023-06-19T08:05:47;99897.41;;;26.77;83.25
12349;BME280;5974;42.710;27.258;2023-06-19T08:08:14;99884.53;;;26.81;85.44
12349;BME280;5974;42.710;27.258;2023-06-19T08:10:41;99892.38;;;26.90;84.85
12349;BME280;5974;42.710;27.258;2023-06-19T08:13:07;99906.91;;;27.04;83.51
12349;BME280;5974;42.710;27.258;2023-06-19T08:15:38;99894.53;;;27.03;84.76
12349;BME280;5974;42.710;27.258;2023-06-19T08:18:04;99900.91;;;27.02;84.77
12349;BME280;5974;42.710;27.258;2023-06-19T08:20:31;99901.16;;;27.23;83.43
12349;BME280;5974;42.710;27.258;2023-06-19T08:22:58;99912.47;;;27.03;83.23
12349;BME280;5974;42.710;27.258;2023-06-19T08:25:25;99899.84;;;27.11;83.90
12349;BME280;5974;42.710;27.258;2023-06-19T08:27:52;99903.47;;;27.34;84.34
12349;BME280;5974;42.710;27.258;2023-06-19T08:30:19;99907.41;;;27.55;83.95
12349;BME280;5974;42.710;27.258;2023-06-19T08:32:47;99912.72;;;27.71;84.00
12349;BME280;5974;42.710;27.258;2023-06-19T08:35:14;99919.44;;;27.67;82.93
12349;BME280;5974;42.710;27.258;2023-06-19T08:37:42;99927.63;;;27.42;81.79
12349;BME280;5974;42.710;27.258;2023-06-19T08:40:09;99935.56;;;27.67;81.93
12349;BME280;5974;42.710;27.258;2023-06-19T08:42:37;99940.38;;;27.40;82.13
12349;BME280;5974;42.710;27.258;2023-06-19T08:45:06;99943.16;;;27.08;82.49
12349;BME280;5974;42.710;27.258;2023-06-19T08:47:34;99953.28;;;26.90;82.51
12349;BME280;5974;42.710;27.258;2023-06-19T08:50:02;99947.88;;;26.74;83.22
12349;BME280;5974;42.710;27.258;2023-06-19T08:52:30;99941.19;;;26.78;82.05
12349;BME280;5974;42.710;27.258;2023-06-19T08:54:56;99995.19;;;26.83;82.32
12349;BME280;5974;42.710;27.258;2023-06-19T08:57:33;99954.50;;;27.42;80.84
12349;BME280;5974;42.710;27.258;2023-06-19T09:00:00;99953.56;;;27.19;81.03
12349;BME280;5974;42.710;27.258;2023-06-19T09:02:36;99944.41;;;27.44;82.53
12349;BME280;5974;42.710;27.258;2023-06-19T09:05:11;99950.69;;;27.68;81.24
12349;BME280;5974;42.710;27.258;2023-06-19T09:07:39;99957.03;;;28.06;81.31
12349;BME280;5974;42.710;27.258;2023-06-19T09:10:14;99951.19;;;27.94;78.88
12349;BME280;5974;42.710;27.258;2023-06-19T09:12:42;99966.63;;;28.08;79.07
12349;BME280;5974;42.710;27.258;2023-06-19T09:15:13;99960.75;;;27.96;77.28
12349;BME280;5974;42.710;27.258;2023-06-19T09:17:40;99977.09;;;28.48;75.68
12349;BME280;5974;42.710;27.258;2023-06-19T09:20:09;99983.59;;;28.31;76.07
12349;BME280;5974;42.710;27.258;2023-06-19T09:22:38;99985.06;;;28.34;75.44
12349;BME280;5974;42.710;27.258;2023-06-19T09:25:06;99991.03;;;27.90;76.63
12349;BME280;5974;42.710;27.258;2023-06-19T09:27:35;100001.09;;;27.58;76.75
12349;BME280;5974;42.710;27.258;2023-06-19T09:30:05;99990.78;;;27.22;77.60
12349;BME280;5974;42.710;27.258;2023-06-19T09:32:33;99970.88;;;26.68;79.40
12349;BME280;5974;42.710;27.258;2023-06-19T09:35:01;99990.84;;;26.58;80.93
12349;BME280;5974;42.710;27.258;2023-06-19T09:37:29;99991.50;;;26.76;80.41
12349;BME280;5974;42.710;27.258;2023-06-19T09:39:59;99970.69;;;26.78;80.15
12349;BME280;5974;42.710;27.258;2023-06-19T09:42:29;99987.97;;;27.08;79.00
12349;BME280;5974;42.710;27.258;2023-06-19T09:44:59;99991.97;;;26.79;79.74
12349;BME280;5974;42.710;27.258;2023-06-19T09:47:30;99995.19;;;26.83;79.74
12349;BME280;5974;42.710;27.258;2023-06-19T09:49:58;99999.22;;;26.87;80.33
12349;BME280;5974;42.710;27.258;2023-06-19T09:52:26;100001.50;;;27.30;78.96
12349;BME280;5974;42.710;27.258;2023-06-19T09:54:54;99948.66;;;27.23;78.28
12349;BME280;5974;42.710;27.258;2023-06-19T09:57:23;99967.97;;;27.18;78.92
12349;BME280;5974;42.710;27.258;2023-06-19T09:59:53;99985.13;;;27.95;78.55
12349;BME280;5974;42.710;27.258;2023-06-19T10:02:22;99980.34;;;28.13;77.43
12349;BME280;5974;42.710;27.258;2023-06-19T10:04:50;99981.56;;;28.02;76.99
12349;BME280;5974;42.710;27.258;2023-06-19T10:07:18;99981.03;;;28.61;77.76
12349;BME280;5974;42.710;27.258;2023-06-19T10:09:57;99975.31;;;29.45;74.63
12349;BME280;5974;42.710;27.258;2023-06-19T10:12:36;99974.22;;;29.39;73.61
12349;BME280;5974;42.710;27.258;2023-06-19T10:15:16;99975.22;;;29.53;73.18
12349;BME280;5974;42.710;27.258;2023-06-19T10:17:47;99975.69;;;28.75;72.83
12349;BME280;5974;42.710;27.258;2023-06-19T10:20:22;99974.69;;;28.76;72.85
12349;BME280;5974;42.710;27.258;2023-06-19T10:22:55;99983.72;;;28.98;73.41
12349;BME280;5974;42.710;27.258;2023-06-19T10:25:24;99976.72;;;28.51;74.92
12349;BME280;5974;42.710;27.258;2023-06-19T10:27:52;99981.00;;;28.98;73.26
12349;BME280;5974;42.710;27.258;2023-06-19T10:30:20;99976.94;;;29.17;70.99
12349;BME280;5974;42.710;27.258;2023-06-19T10:32:47;99981.00;;;28.98;71.86
12349;BME280;5974;42.710;27.258;2023-06-19T10:35:16;99973.66;;;28.92;70.68
12349;BME280;5974;42.710;27.258;2023-06-19T10:37:47;99972.94;;;28.61;72.04
12349;BME280;5974;42.710;27.258;2023-06-19T10:40:14;99956.72;;;29.06;70.83
12349;BME280;5974;42.710;27.258;2023-06-19T10:42:41;99953.75;;;29.45;71.39
12349;BME280;5974;42.710;27.258;2023-06-19T10:45:11;99955.31;;;29.83;69.82
12349;BME280;5974;42.710;27.258;2023-06-19T10:47:39;99950.50;;;30.21;68.19
12349;BME280;5974;42.710;27.258;2023-06-19T10:50:10;99944.50;;;30.40;67.01
12349;BME280;5974;42.710;27.258;2023-06-19T10:52:39;99941.72;;;30.55;67.58
12349;BME280;5974;42.710;27.258;2023-06-19T10:55:07;99933.53;;;30.42;67.16
12349;BME280;5974;42.710;27.258;2023-06-19T10:57:34;99938.00;;;30.14;67.54
12349;BME280;5974;42.710;27.258;2023-06-19T11:00:02;99927.97;;;30.29;68.85
12349;BME280;5974;42.710;27.258;2023-06-19T11:02:39;99936.00;;;29.65;70.44
12349;BME280;5974;42.710;27.258;2023-06-19T11:05:09;99933.00;;;29.75;69.49
12349;BME280;5974;42.710;27.258;2023-06-19T11:07:35;99924.22;;;29.22;70.42
12349;BME280;5974;42.710;27.258;2023-06-19T11:10:03;99925.97;;;29.95;68.29
12349;BME280;5974;42.710;27.258;2023-06-19T11:12:31;99925.34;;;29.78;68.98
12349;BME280;5974;42.710;27.258;2023-06-19T11:14:59;99917.34;;;29.85;69.83
12349;BME280;5974;42.710;27.258;2023-06-19T11:17:26;99921.84;;;29.63;70.94
12349;BME280;5974;42.710;27.258;2023-06-19T11:19:56;99922.47;;;28.63;80.62
12349;BME280;5974;42.710;27.258;2023-06-19T11:22:35;99921.78;;;27.70;100.00
12349;BME280;5974;42.710;27.258;2023-06-19T11:25:02;99919.19;;;28.52;100.00
12349;BME280;5974;42.710;27.258;2023-06-19T11:27:30;99930.25;;;29.10;96.38
12349;BME280;5974;42.710;27.258;2023-06-19T11:29:58;99917.03;;;30.37;79.49
12349;BME280;5974;42.710;27.258;2023-06-19T11:32:30;99915.97;;;30.52;79.11
12349;BME280;5974;42.710;27.258;2023-06-19T11:35:05;99917.25;;;30.14;77.24
12349;BME280;5974;42.710;27.258;2023-06-19T11:37:33;99914.81;;;30.40;76.57
12349;BME280;5974;42.710;27.258;2023-06-19T11:40:01;99900.16;;;29.50;78.72
12349;BME280;5974;42.710;27.258;2023-06-19T11:42:44;99911.78;;;29.07;79.22
12349;BME280;5974;42.710;27.258;2023-06-19T11:45:11;99920.47;;;28.42;77.56
12349;BME280;5974;42.710;27.258;2023-06-19T11:47:38;99920.78;;;27.71;81.50
12349;BME280;5974;42.710;27.258;2023-06-19T11:50:07;99928.28;;;27.36;79.85
12349;BME280;5974;42.710;27.258;2023-06-19T11:52:41;99927.66;;;27.26;81.05
12349;BME280;5974;42.710;27.258;2023-06-19T11:55:09;99921.34;;;27.19;81.10
12349;BME280;5974;42.710;27.258;2023-06-19T11:57:36;99927.94;;;27.39;82.96
12349;BME280;5974;42.710;27.258;2023-06-19T12:00:03;99932.88;;;27.67;84.33
12349;BME280;5974;42.710;27.258;2023-06-19T12:02:34;99929.19;;;27.21;82.66
12349;BME280;5974;42.710;27.258;2023-06-19T12:05:01;99930.94;;;27.53;82.88
12349;BME280;5974;42.710;27.258;2023-06-19T12:07:30;99926.44;;;27.76;85.33
12349;BME280;5974;42.710;27.258;2023-06-19T12:09:57;99919.25;;;27.99;83.29
12349;BME280;5974;42.710;27.258;2023-06-19T12:12:28;99916.94;;;28.19;85.21
12349;BME280;5974;42.710;27.258;2023-06-19T12:14:56;99921.50;;;28.56;82.71
12349;BME280;5974;42.710;27.258;2023-06-19T12:17:23;99915.00;;;28.50;81.89
12349;BME280;5974;42.710;27.258;2023-06-19T12:19:53;99919.38;;;28.88;81.01
12349;BME280;5974;42.710;27.258;2023-06-19T12:22:19;99904.97;;;28.81;76.72
12349;BME280;5974;42.710;27.258;2023-06-19T12:24:48;99905.72;;;28.75;75.45
12349;BME280;5974;42.710;27.258;2023-06-19T12:27:15;99886.13;;;28.96;74.24
12349;BME280;5974;42.710;27.258;2023-06-19T12:29:41;99897.22;;;28.64;75.44
12349;BME280;5974;42.710;27.258;2023-06-19T12:32:08;99892.00;;;28.25;75.35
12349;BME280;5974;42.710;27.258;2023-06-19T12:34:35;99897.31;;;27.65;76.79
12349;BME280;5974;42.710;27.258;2023-06-19T12:37:02;99904.78;;;27.38;74.30
12349;BME280;5974;42.710;27.258;2023-06-19T12:39:29;99872.75;;;26.90;74.21
12349;BME280;5974;42.710;27.258;2023-06-19T12:41:58;99903.13;;;27.37;75.61
12349;BME280;5974;42.710;27.258;2023-06-19T12:44:25;99897.38;;;27.79;74.36
12349;BME280;5974;42.710;27.258;2023-06-19T12:46:52;99901.72;;;28.11;71.73
12349;BME280;5974;42.710;27.258;2023-06-19T12:49:19;99896.38;;;28.26;71.19
12349;BME280;5974;42.710;27.258;2023-06-19T12:51:46;99888.44;;;28.10;71.42
12349;BME280;5974;42.710;27.258;2023-06-19T12:54:16;99886.72;;;28.17;71.29
12349;BME280;5974;42.710;27.258;2023-06-19T12:56:43;99883.38;;;28.15;69.37
12349;BME280;5974;42.710;27.258;2023-06-19T12:59:11;99876.91;;;28.01;69.44